Карточка аэропорта URSS

Внимание!
Информация на этой странице в стадии наполнения.
Если вы не увидели какой-то информации, или заметили неточность - пожалуйста сообщите нам!
Спасибо!
Команда RU-STAFF
Название аэропортаСочи
Название аэропорта (англ.)Sochi
Превышение89 ft. (27.1 m.)
Координаты43°26.634', 39°56.55'
Высота перехода1100m
Эшелон переходаFL050
Коды ответчика1060-1077
Зона ОрВДРостов-на-Дону РПИ (URRV)
Данные METARURSS 241430Z 30002MPS 9999 FEW030 18/09 Q1015 WS ALL RWY R02/010070 R06/010070 NOSIG RMK R06/30003MPS MT OBSC QFE760
Проноз погоды (TAF)URSS 241357Z 2415/2515 28004G09MPS 9999 FEW030 SCT100 BECMG 2416/2418 05003G08MPS BKN030CB OVC100 TEMPO 2418/2421 10004G09MPS -TSRA FM242100 14004G09MPS 6000 -SHRA BKN010 BKN020CB OVC100 TEMPO 2421/2515 VRB08G14MPS 1000 TSRA SQ BKN006 BKN020CB OVC100
NOTAMshow/hide NOTAM
AWOS   TABLE

Информация о ВПП

ВПП Длина ВПП (м.) Покрытие Курс ВПП Частота ILS
062890Цементобетон58111.1
242890Цементобетон238 
022500Цементобетон22110.5
202500Цементобетон202 

Диспетчерские позиции

Позывной Наименование органа УВД Частота
URSS_GNDСочи-Руление119.000
URSS_TWRСочи-Старт121.200
URSS_APPСочи-Подход118.300
URSS_R_APPСочи-Круг119.700
URSS_DELСочи-Деливери132.700
URSS_FM1119.000



Спутниковое изображение